Time;durP1;ratioP1;P1;durP2;ratioP2;P2;SDS_P1;SDS_P2;PMS_P1;PMS_P2;Temp;Humidity;BMP_temperature;BMP_pressure;BME280_temperature;BME280_humidity;BME280_pressure;Samples;Min_cycle;Max_cycle;Signal;HPM_P1;HPM_P2
2023/07/12 00:00:46;;;;;;;3.03;2.23;;;;;;;;;;5035298;28;20430;-65
2023/07/12 00:03:12;;;;;;;5.20;2.47;;;;;;;;;;5035221;28;20234;-66
2023/07/12 00:05:38;;;;;;;8.80;2.70;;;;;;;;;;5034867;28;20478;-65
2023/07/12 00:08:04;;;;;;;7.20;2.33;;;;;;;;;;5050166;28;20965;-66
2023/07/12 00:10:33;;;;;;;3.50;2.40;;;;;;;;;;5034798;28;20930;-65
2023/07/12 00:13:00;;;;;;;4.00;2.50;;;;;;;;;;5050151;28;20465;-65
2023/07/12 00:15:29;;;;;;;2.33;2.10;;;;;;;;;;5035146;28;20420;-66
2023/07/12 00:17:55;;;;;;;6.77;2.70;;;;;;;;;;5049892;28;20469;-65
2023/07/12 00:20:24;;;;;;;2.37;2.17;;;;;;;;;;5034756;28;20801;-66
2023/07/12 00:22:51;;;;;;;4.83;2.37;;;;;;;;;;5050705;28;20430;-65
2023/07/12 00:25:17;;;;;;;6.10;3.13;;;;;;;;;;5034512;28;20881;-66
2023/07/12 00:27:43;;;;;;;7.77;2.70;;;;;;;;;;5034824;28;20415;-65
2023/07/12 00:30:12;;;;;;;2.53;2.37;;;;;;;;;;5034657;28;20485;-65
2023/07/12 00:32:39;;;;;;;6.73;2.60;;;;;;;;;;5034391;28;20431;-65
2023/07/12 00:35:05;;;;;;;3.83;2.90;;;;;;;;;;5049681;28;20435;-65
2023/07/12 00:37:31;;;;;;;5.33;2.60;;;;;;;;;;5034526;28;20500;-65
2023/07/12 00:39:57;;;;;;;4.50;3.20;;;;;;;;;;5034563;28;20916;-65
2023/07/12 00:42:27;;;;;;;5.37;3.47;;;;;;;;;;5034360;28;20513;-65
2023/07/12 00:44:55;;;;;;;3.57;2.70;;;;;;;;;;5034231;28;20212;-65
2023/07/12 00:47:21;;;;;;;2.50;2.40;;;;;;;;;;5033328;28;20423;-65
2023/07/12 00:49:48;;;;;;;6.00;2.93;;;;;;;;;;5034040;28;20475;-65
2023/07/12 00:52:15;;;;;;;5.50;2.67;;;;;;;;;;5034517;28;20422;-65
2023/07/12 00:54:52;;;;;;;5.37;3.00;;;;;;;;;;5034586;28;20418;-65
2023/07/12 00:57:18;;;;;;;9.20;3.30;;;;;;;;;;5033844;28;20418;-65
2023/07/12 00:59:44;;;;;;;7.13;3.50;;;;;;;;;;5033841;28;20918;-65
2023/07/12 01:02:12;;;;;;;13.00;3.80;;;;;;;;;;5034607;28;20502;-65
2023/07/12 01:04:48;;;;;;;3.33;3.03;;;;;;;;;;5033994;28;20463;-65
2023/07/12 01:07:15;;;;;;;7.80;3.47;;;;;;;;;;5033738;28;20423;-65
2023/07/12 01:09:41;;;;;;;8.90;2.87;;;;;;;;;;5034051;28;20415;-65
2023/07/12 01:12:07;;;;;;;3.73;3.30;;;;;;;;;;5033742;28;20419;-65
2023/07/12 01:14:33;;;;;;;3.07;2.90;;;;;;;;;;5033704;28;20418;-65
2023/07/12 01:17:02;;;;;;;4.07;3.03;;;;;;;;;;5033512;28;20917;-65
2023/07/12 01:19:28;;;;;;;5.77;2.67;;;;;;;;;;5033474;28;20514;-65
2023/07/12 01:21:54;;;;;;;3.13;2.97;;;;;;;;;;5033563;28;20757;-65
2023/07/12 01:24:22;;;;;;;5.40;3.67;;;;;;;;;;5033476;28;20455;-65
2023/07/12 01:26:50;;;;;;;5.23;2.93;;;;;;;;;;5033780;28;20431;-65
2023/07/12 01:29:16;;;;;;;3.27;2.93;;;;;;;;;;5033356;28;20473;-65
2023/07/12 01:31:43;;;;;;;10.80;3.00;;;;;;;;;;5034380;28;20564;-65
2023/07/12 01:34:09;;;;;;;6.93;4.03;;;;;;;;;;5033444;28;20902;-65
2023/07/12 01:36:35;;;;;;;6.37;3.40;;;;;;;;;;5033415;28;20428;-65
2023/07/12 01:39:03;;;;;;;6.13;2.80;;;;;;;;;;5033333;28;20418;-65
2023/07/12 01:41:29;;;;;;;3.20;2.97;;;;;;;;;;5033568;28;20423;-65
2023/07/12 01:43:55;;;;;;;5.77;3.47;;;;;;;;;;5033569;28;20420;-65
2023/07/12 01:46:22;;;;;;;10.73;4.23;;;;;;;;;;5033323;28;20467;-65
2023/07/12 01:48:48;;;;;;;5.77;3.47;;;;;;;;;;5032884;28;20934;-65
2023/07/12 01:51:15;;;;;;;9.73;2.90;;;;;;;;;;5033619;28;20423;-64
2023/07/12 01:53:41;;;;;;;2.00;1.90;;;;;;;;;;5033427;28;20466;-65
2023/07/12 01:56:07;;;;;;;3.57;3.30;;;;;;;;;;5048423;28;20423;-65
2023/07/12 01:58:33;;;;;;;4.10;2.57;;;;;;;;;;5033246;28;20458;-65
2023/07/12 02:01:00;;;;;;;4.83;3.10;;;;;;;;;;5037082;28;20423;-65
2023/07/12 02:03:26;;;;;;;6.00;2.83;;;;;;;;;;5037350;28;20423;-65
2023/07/12 02:05:53;;;;;;;4.10;2.90;;;;;;;;;;5037393;28;20510;-65
2023/07/12 02:08:19;;;;;;;3.50;2.80;;;;;;;;;;5037358;28;20419;-65
2023/07/12 02:10:45;;;;;;;3.27;3.07;;;;;;;;;;5037139;28;20419;-65
2023/07/12 02:13:11;;;;;;;3.40;3.17;;;;;;;;;;5037109;28;20779;-65
2023/07/12 02:15:37;;;;;;;5.87;3.40;;;;;;;;;;5052286;28;20423;-65
2023/07/12 02:18:04;;;;;;;7.33;3.07;;;;;;;;;;5037129;28;20411;-65
2023/07/12 02:20:30;;;;;;;5.10;3.40;;;;;;;;;;5037266;28;20446;-65
2023/07/12 02:22:56;;;;;;;13.50;3.47;;;;;;;;;;5036882;28;20411;-65
2023/07/12 02:25:22;;;;;;;7.53;3.97;;;;;;;;;;5037030;28;20474;-65
2023/07/12 02:27:48;;;;;;;7.80;3.13;;;;;;;;;;5036825;28;20481;-65
2023/07/12 02:30:16;;;;;;;2.97;2.70;;;;;;;;;;5036745;28;20506;-65
2023/07/12 02:32:42;;;;;;;3.30;3.10;;;;;;;;;;5036883;28;20421;-65
2023/07/12 02:35:09;;;;;;;5.67;3.50;;;;;;;;;;5036938;28;20419;-65
2023/07/12 02:37:35;;;;;;;3.10;2.90;;;;;;;;;;5036498;28;20419;-65
2023/07/12 02:40:01;;;;;;;7.90;2.87;;;;;;;;;;5036789;28;20423;-65
2023/07/12 02:42:27;;;;;;;2.83;2.60;;;;;;;;;;5036807;28;20491;-65
2023/07/12 02:44:53;;;;;;;5.60;3.60;;;;;;;;;;5037527;28;20478;-65
2023/07/12 02:47:19;;;;;;;3.40;2.70;;;;;;;;;;5036424;28;20909;-65
2023/07/12 02:49:45;;;;;;;6.13;3.73;;;;;;;;;;5036173;28;20982;-65
2023/07/12 02:52:11;;;;;;;13.00;3.17;;;;;;;;;;5036558;28;20412;-65
2023/07/12 02:54:37;;;;;;;5.77;3.57;;;;;;;;;;5036628;28;20918;-65
2023/07/12 02:57:03;;;;;;;14.67;4.40;;;;;;;;;;5036529;28;20418;-65
2023/07/12 02:59:30;;;;;;;10.27;3.80;;;;;;;;;;5036412;28;20615;-65
2023/07/12 03:01:56;;;;;;;6.10;3.80;;;;;;;;;;5036471;28;20423;-65
2023/07/12 03:04:23;;;;;;;5.60;2.80;;;;;;;;;;5036257;28;20427;-65
2023/07/12 03:06:49;;;;;;;6.83;3.23;;;;;;;;;;5036096;28;20430;-65
2023/07/12 03:09:15;;;;;;;4.73;2.97;;;;;;;;;;5035918;28;20415;-64
2023/07/12 03:11:44;;;;;;;4.20;2.90;;;;;;;;;;5035389;28;20473;-65
2023/07/12 03:14:09;;;;;;;8.73;3.47;;;;;;;;;;5036178;28;20589;-65
2023/07/12 03:16:35;;;;;;;9.40;3.73;;;;;;;;;;5036005;28;20786;-65
2023/07/12 03:19:02;;;;;;;4.27;3.87;;;;;;;;;;5036001;28;20412;-65
2023/07/12 03:21:28;;;;;;;11.97;3.43;;;;;;;;;;5035814;28;20449;-65
2023/07/12 03:23:54;;;;;;;3.70;3.30;;;;;;;;;;5036041;28;20506;-65
2023/07/12 03:26:20;;;;;;;4.20;3.10;;;;;;;;;;5035637;28;20481;-65
2023/07/12 03:28:46;;;;;;;6.50;3.13;;;;;;;;;;5035936;28;20408;-65
2023/07/12 03:31:15;;;;;;;13.37;3.13;;;;;;;;;;5050940;28;20945;-65
2023/07/12 03:33:42;;;;;;;10.17;3.93;;;;;;;;;;5035805;28;20423;-65
2023/07/12 03:36:08;;;;;;;14.40;4.17;;;;;;;;;;5035764;28;20427;-65
2023/07/12 03:38:34;;;;;;;8.03;3.70;;;;;;;;;;5035917;28;20731;-65
2023/07/12 03:41:01;;;;;;;13.87;3.90;;;;;;;;;;5035722;28;20233;-65
2023/07/12 03:43:27;;;;;;;8.00;4.17;;;;;;;;;;5035700;28;20408;-65
2023/07/12 03:45:54;;;;;;;6.93;4.47;;;;;;;;;;5035528;28;20521;-65
2023/07/12 03:48:20;;;;;;;3.93;3.63;;;;;;;;;;5035468;28;20411;-66
2023/07/12 03:50:47;;;;;;;14.93;4.30;;;;;;;;;;5035213;28;20475;-66
2023/07/12 03:53:13;;;;;;;6.80;4.17;;;;;;;;;;5035271;28;20407;-65
2023/07/12 03:55:40;;;;;;;6.53;4.23;;;;;;;;;;5035185;28;20429;-66
2023/07/12 03:58:06;;;;;;;12.13;4.60;;;;;;;;;;5035622;28;20517;-65
2023/07/12 04:00:33;;;;;;;4.77;3.77;;;;;;;;;;5035374;28;20419;-65
2023/07/12 04:02:59;;;;;;;8.83;3.90;;;;;;;;;;5050344;28;20784;-65
2023/07/12 04:05:25;;;;;;;21.00;4.90;;;;;;;;;;5035253;28;20478;-65
2023/07/12 04:07:52;;;;;;;6.60;4.03;;;;;;;;;;5035225;28;20404;-66
2023/07/12 04:10:18;;;;;;;8.70;4.20;;;;;;;;;;5034894;28;20772;-65
2023/07/12 04:12:45;;;;;;;10.03;4.20;;;;;;;;;;5035026;28;20419;-65
2023/07/12 04:15:12;;;;;;;8.17;5.17;;;;;;;;;;5034876;28;20438;-65
2023/07/12 04:17:38;;;;;;;4.33;4.00;;;;;;;;;;5034907;28;20412;-65
2023/07/12 04:20:05;;;;;;;5.33;3.50;;;;;;;;;;5034950;28;20918;-65
2023/07/12 04:22:31;;;;;;;9.37;4.77;;;;;;;;;;5034816;28;20502;-65
2023/07/12 04:24:58;;;;;;;10.70;5.00;;;;;;;;;;5035317;28;20994;-65
2023/07/12 04:27:24;;;;;;;9.27;4.57;;;;;;;;;;5034461;28;20914;-65
2023/07/12 04:29:50;;;;;;;13.30;5.60;;;;;;;;;;5034439;28;20415;-65
2023/07/12 04:32:16;;;;;;;11.10;5.80;;;;;;;;;;5034758;28;20974;-65
2023/07/12 04:34:42;;;;;;;4.40;4.10;;;;;;;;;;5034442;28;20537;-65
2023/07/12 04:37:08;;;;;;;9.53;4.93;;;;;;;;;;5034362;28;20423;-65
2023/07/12 04:39:34;;;;;;;4.97;4.60;;;;;;;;;;5034543;28;20419;-65
2023/07/12 04:42:00;;;;;;;9.37;4.20;;;;;;;;;;5034851;28;20423;-65
2023/07/12 04:44:26;;;;;;;6.23;3.70;;;;;;;;;;5034414;28;20451;-65
2023/07/12 04:46:52;;;;;;;6.00;3.47;;;;;;;;;;5034431;28;20192;-65
2023/07/12 04:49:18;;;;;;;7.70;4.57;;;;;;;;;;5033912;28;20495;-66
2023/07/12 04:51:43;;;;;;;10.00;4.80;;;;;;;;;;5034253;28;20834;-65
2023/07/12 04:54:09;;;;;;;15.73;4.70;;;;;;;;;;5034371;28;20176;-65
2023/07/12 04:56:35;;;;;;;3.47;3.27;;;;;;;;;;5034049;28;20184;-65
2023/07/12 04:59:01;;;;;;;8.87;4.03;;;;;;;;;;5034647;28;20200;-65
2023/07/12 05:01:28;;;;;;;6.93;4.40;;;;;;;;;;5034100;28;20462;-66
2023/07/12 05:03:54;;;;;;;4.53;4.13;;;;;;;;;;5034081;28;20415;-65
2023/07/12 05:06:20;;;;;;;3.93;3.47;;;;;;;;;;5034480;28;20562;-65
2023/07/12 05:08:46;;;;;;;4.00;3.63;;;;;;;;;;5033388;28;20448;-64
2023/07/12 05:11:12;;;;;;;16.90;4.13;;;;;;;;;;5033602;28;20478;-64
2023/07/12 05:13:38;;;;;;;5.03;4.63;;;;;;;;;;5033845;28;20423;-66
2023/07/12 05:16:04;;;;;;;8.07;4.00;;;;;;;;;;5033547;28;20907;-65
2023/07/12 05:18:30;;;;;;;4.33;4.13;;;;;;;;;;5033567;28;20431;-65
2023/07/12 05:20:57;;;;;;;7.30;4.70;;;;;;;;;;5033425;28;20420;-65
2023/07/12 05:23:23;;;;;;;8.73;5.50;;;;;;;;;;5033692;28;20488;-64
2023/07/12 05:25:53;;;;;;;7.17;4.57;;;;;;;;;;5033269;28;20549;-65
2023/07/12 05:28:19;;;;;;;4.10;3.63;;;;;;;;;;5033344;28;20913;-65
2023/07/12 05:30:45;;;;;;;6.70;4.10;;;;;;;;;;5048671;28;20509;-65
2023/07/12 05:33:11;;;;;;;4.80;4.33;;;;;;;;;;5032870;28;20418;-65
2023/07/12 05:35:37;;;;;;;4.07;3.57;;;;;;;;;;5033831;28;20510;-65
2023/07/12 05:38:03;;;;;;;10.73;4.63;;;;;;;;;;5033472;28;20418;-65
2023/07/12 05:40:30;;;;;;;6.13;5.07;;;;;;;;;;5033283;28;20891;-65
2023/07/12 05:42:56;;;;;;;4.80;4.17;;;;;;;;;;5033485;28;20443;-65
2023/07/12 05:45:23;;;;;;;7.60;4.60;;;;;;;;;;5033314;28;20463;-65
2023/07/12 05:47:49;;;;;;;12.40;4.90;;;;;;;;;;5033359;28;20427;-64
2023/07/12 05:50:16;;;;;;;10.27;5.00;;;;;;;;;;5032931;28;20974;-65
2023/07/12 05:52:42;;;;;;;6.17;4.17;;;;;;;;;;5033588;28;20427;-64
2023/07/12 05:55:10;;;;;;;6.27;2.77;;;;;;;;;;5033183;28;20796;-64
2023/07/12 05:57:36;;;;;;;6.10;4.07;;;;;;;;;;5032897;28;20958;-65
2023/07/12 06:00:03;;;;;;;4.40;4.10;;;;;;;;;;5032948;28;20403;-65
2023/07/12 06:02:29;;;;;;;4.30;4.00;;;;;;;;;;5032836;28;21012;-65
2023/07/12 06:04:55;;;;;;;6.77;4.73;;;;;;;;;;5033102;28;20498;-65
2023/07/12 06:07:21;;;;;;;5.63;3.73;;;;;;;;;;5033232;28;20756;-65
2023/07/12 06:12:50;;;;;;;5.30;4.80;;;;;;;;;;5032843;28;20553;-65
2023/07/12 06:15:18;;;;;;;7.83;4.93;;;;;;;;;;5032831;28;20450;-64
2023/07/12 06:17:44;;;;;;;9.40;4.40;;;;;;;;;;5032789;28;20502;-64
2023/07/12 06:20:10;;;;;;;5.27;4.80;;;;;;;;;;5033085;28;20512;-65
2023/07/12 06:22:37;;;;;;;9.10;4.67;;;;;;;;;;5032983;28;20427;-65
2023/07/12 06:25:03;;;;;;;7.30;4.50;;;;;;;;;;5032713;28;20462;-64
2023/07/12 06:27:29;;;;;;;12.57;4.63;;;;;;;;;;5032918;28;20416;-64
2023/07/12 06:29:55;;;;;;;14.83;5.17;;;;;;;;;;5033029;28;20411;-64
2023/07/12 06:32:21;;;;;;;7.20;4.83;;;;;;;;;;5032774;28;20485;-65
2023/07/12 06:34:46;;;;;;;3.83;3.53;;;;;;;;;;5032909;28;20184;-65
2023/07/12 06:37:12;;;;;;;12.57;5.17;;;;;;;;;;5047708;28;20208;-65
2023/07/12 06:39:38;;;;;;;4.50;4.10;;;;;;;;;;5032487;28;20185;-65
2023/07/12 06:42:04;;;;;;;10.70;5.00;;;;;;;;;;5032842;28;20419;-65
2023/07/12 06:44:30;;;;;;;9.23;4.60;;;;;;;;;;5032516;28;20468;-65
2023/07/12 06:46:57;;;;;;;7.90;6.33;;;;;;;;;;5034742;28;20514;-65
2023/07/12 06:49:23;;;;;;;11.40;5.10;;;;;;;;;;5036258;28;20458;-65
2023/07/12 06:51:49;;;;;;;9.93;4.73;;;;;;;;;;5036680;28;20812;-65
2023/07/12 06:54:15;;;;;;;4.37;4.07;;;;;;;;;;5036289;28;20403;-65
2023/07/12 06:56:41;;;;;;;4.90;4.50;;;;;;;;;;5036652;28;20921;-65
2023/07/12 06:59:07;;;;;;;4.60;4.27;;;;;;;;;;5036105;28;20473;-65
2023/07/12 07:01:33;;;;;;;11.93;4.50;;;;;;;;;;5036252;28;20442;-66
2023/07/12 07:03:59;;;;;;;11.73;5.03;;;;;;;;;;5035949;28;20415;-66
2023/07/12 07:06:25;;;;;;;7.00;4.60;;;;;;;;;;5036559;28;20466;-66
2023/07/12 07:08:51;;;;;;;13.53;6.30;;;;;;;;;;5035789;28;20481;-66
2023/07/12 07:11:17;;;;;;;4.60;4.20;;;;;;;;;;5036091;28;20415;-66
2023/07/12 07:13:44;;;;;;;6.63;4.03;;;;;;;;;;5035982;28;20427;-66
2023/07/12 07:16:11;;;;;;;4.87;4.47;;;;;;;;;;5035769;28;20837;-66
2023/07/12 07:18:37;;;;;;;4.30;4.00;;;;;;;;;;5050898;28;20434;-66
2023/07/12 07:21:03;;;;;;;6.50;4.40;;;;;;;;;;5036264;28;20412;-66
2023/07/12 07:23:30;;;;;;;4.60;4.20;;;;;;;;;;5035654;28;20933;-65
2023/07/12 07:26:01;;;;;;;4.33;4.03;;;;;;;;;;5035577;28;20533;-66
2023/07/12 07:28:27;;;;;;;6.27;4.13;;;;;;;;;;5036180;28;20791;-65
2023/07/12 07:30:55;;;;;;;4.30;3.90;;;;;;;;;;5036157;28;20419;-66
2023/07/12 07:33:21;;;;;;;7.90;4.77;;;;;;;;;;5035752;28;20419;-66
2023/07/12 07:35:47;;;;;;;5.10;4.07;;;;;;;;;;5035511;28;20415;-67
2023/07/12 07:38:13;;;;;;;13.37;4.63;;;;;;;;;;5035511;28;20933;-69
2023/07/12 07:40:43;;;;;;;7.20;4.10;;;;;;;;;;5035393;28;20934;-70
2023/07/12 07:43:10;;;;;;;14.50;4.03;;;;;;;;;;5035665;28;20477;-70
2023/07/12 07:45:36;;;;;;;18.20;4.33;;;;;;;;;;5035308;28;20492;-69
2023/07/12 07:48:02;;;;;;;11.33;5.40;;;;;;;;;;5035530;28;20908;-69
2023/07/12 07:50:28;;;;;;;15.03;4.30;;;;;;;;;;5035105;28;20459;-69
2023/07/12 07:52:54;;;;;;;5.47;4.87;;;;;;;;;;5035270;28;20464;-69
2023/07/12 07:55:21;;;;;;;3.90;3.53;;;;;;;;;;5035197;28;20914;-69
2023/07/12 07:57:47;;;;;;;6.10;4.00;;;;;;;;;;5034629;28;20937;-70
2023/07/12 08:00:14;;;;;;;7.13;4.20;;;;;;;;;;5034926;28;20419;-70
2023/07/12 08:02:42;;;;;;;5.33;3.87;;;;;;;;;;5034184;28;20415;-69
2023/07/12 08:05:08;;;;;;;6.47;3.40;;;;;;;;;;5035708;28;20475;-69
2023/07/12 08:07:41;;;;;;;4.10;3.80;;;;;;;;;;5034928;28;20415;-69
2023/07/12 08:10:08;;;;;;;13.33;3.97;;;;;;;;;;5035163;28;20518;-69
2023/07/12 08:12:34;;;;;;;7.40;4.20;;;;;;;;;;5034865;28;20422;-69
2023/07/12 08:15:00;;;;;;;6.13;4.10;;;;;;;;;;5034708;28;20518;-69
2023/07/12 08:17:26;;;;;;;9.33;4.10;;;;;;;;;;5049865;28;20498;-69
2023/07/12 08:19:53;;;;;;;3.87;3.57;;;;;;;;;;5034546;28;20835;-69
2023/07/12 08:22:19;;;;;;;8.83;3.60;;;;;;;;;;5034745;28;20832;-69
2023/07/12 08:24:46;;;;;;;5.50;4.63;;;;;;;;;;5034750;28;20517;-69
2023/07/12 08:27:12;;;;;;;3.67;3.47;;;;;;;;;;5034837;28;20427;-69
2023/07/12 08:29:38;;;;;;;5.73;3.60;;;;;;;;;;5034372;28;20887;-69
2023/07/12 08:32:04;;;;;;;4.50;4.10;;;;;;;;;;5034645;28;20420;-69
2023/07/12 08:34:30;;;;;;;5.97;3.80;;;;;;;;;;5034432;28;21005;-69
2023/07/12 08:36:56;;;;;;;3.87;3.63;;;;;;;;;;5034407;28;20443;-69
2023/07/12 08:39:23;;;;;;;6.60;4.63;;;;;;;;;;5034330;28;20775;-69
2023/07/12 08:41:51;;;;;;;8.23;4.00;;;;;;;;;;5034662;28;20454;-69
2023/07/12 08:44:17;;;;;;;9.63;3.90;;;;;;;;;;5034053;28;20419;-69
2023/07/12 08:46:56;;;;;;;4.60;4.30;;;;;;;;;;5034106;28;20837;-69
2023/07/12 08:49:23;;;;;;;8.10;3.90;;;;;;;;;;5033993;28;20493;-69
2023/07/12 08:51:50;;;;;;;6.97;3.67;;;;;;;;;;5034194;28;20423;-70
2023/07/12 08:54:22;;;;;;;5.83;4.20;;;;;;;;;;5034027;28;20426;-69
2023/07/12 08:56:48;;;;;;;3.77;3.47;;;;;;;;;;5034315;28;20895;-69
2023/07/12 08:59:15;;;;;;;9.10;3.60;;;;;;;;;;5034112;28;20423;-69
2023/07/12 09:01:43;;;;;;;10.43;4.30;;;;;;;;;;5033962;28;20426;-69
2023/07/12 09:04:22;;;;;;;5.40;4.27;;;;;;;;;;5034470;28;20509;-69
2023/07/12 09:06:50;;;;;;;6.07;3.23;;;;;;;;;;5034133;28;20496;-69
2023/07/12 09:12:24;;;;;;;4.03;3.73;;;;;;;;;;5033812;28;20449;-69
2023/07/12 09:14:53;;;;;;;6.53;4.07;;;;;;;;;;5033895;28;20426;-69
2023/07/12 09:17:23;;;;;;;15.60;4.47;;;;;;;;;;5033999;28;20425;-69
2023/07/12 09:19:50;;;;;;;4.67;4.10;;;;;;;;;;5032321;28;20430;-69
2023/07/12 09:22:17;;;;;;;10.00;4.60;;;;;;;;;;5033465;28;20500;-69
2023/07/12 09:24:44;;;;;;;7.63;3.80;;;;;;;;;;5033645;28;20470;-69
2023/07/12 09:27:18;;;;;;;5.00;4.20;;;;;;;;;;5033442;28;20411;-69
2023/07/12 09:29:44;;;;;;;5.63;4.10;;;;;;;;;;5033323;28;20396;-69
2023/07/12 09:32:16;;;;;;;8.90;4.50;;;;;;;;;;5033351;28;20471;-69
2023/07/12 09:34:42;;;;;;;11.27;3.90;;;;;;;;;;5033397;28;20407;-69
2023/07/12 09:37:15;;;;;;;4.83;4.30;;;;;;;;;;5033627;28;20426;-69
2023/07/12 09:39:42;;;;;;;7.27;4.70;;;;;;;;;;5033520;28;20883;-70
2023/07/12 09:42:11;;;;;;;11.03;4.20;;;;;;;;;;5033538;28;20416;-69
2023/07/12 09:44:37;;;;;;;6.07;3.83;;;;;;;;;;5033190;28;20477;-69
2023/07/12 09:47:06;;;;;;;4.80;4.40;;;;;;;;;;5033506;28;20427;-69
2023/07/12 09:49:42;;;;;;;4.77;4.33;;;;;;;;;;5032642;28;20967;-69
2023/07/12 09:52:25;;;;;;;4.47;4.17;;;;;;;;;;5033504;28;20448;-69
2023/07/12 09:54:51;;;;;;;9.47;4.70;;;;;;;;;;5033190;28;20415;-69
2023/07/12 09:57:20;;;;;;;6.63;3.83;;;;;;;;;;5033170;28;20419;-69
2023/07/12 10:00:00;;;;;;;4.00;3.50;;;;;;;;;;5032981;28;20415;-70
2023/07/12 10:02:26;;;;;;;8.43;3.70;;;;;;;;;;5033731;28;20409;-69
2023/07/12 10:04:54;;;;;;;4.87;4.30;;;;;;;;;;5033050;28;20478;-69
2023/07/12 10:07:45;;;;;;;3.63;3.53;;;;;;;;;;5033076;28;20415;-69
2023/07/12 10:10:20;;;;;;;14.23;3.67;;;;;;;;;;5033268;28;20431;-69
2023/07/12 10:12:50;;;;;;;4.30;4.07;;;;;;;;;;5033275;28;20403;-69
2023/07/12 10:15:16;;;;;;;4.87;4.47;;;;;;;;;;5032971;28;20431;-70
2023/07/12 10:17:44;;;;;;;3.90;3.70;;;;;;;;;;5033751;28;20426;-69
2023/07/12 10:20:16;;;;;;;5.80;3.20;;;;;;;;;;5034080;28;20429;-69
2023/07/12 10:22:43;;;;;;;4.60;4.27;;;;;;;;;;5037197;28;20431;-69
2023/07/12 10:25:15;;;;;;;3.97;3.63;;;;;;;;;;5036782;28;20830;-69
2023/07/12 10:27:46;;;;;;;4.47;4.00;;;;;;;;;;5037092;28;20886;-70
2023/07/12 10:30:24;;;;;;;3.83;3.43;;;;;;;;;;5036947;28;20387;-69
2023/07/12 10:32:52;;;;;;;5.70;3.20;;;;;;;;;;5036856;28;20403;-69
2023/07/12 10:35:32;;;;;;;4.37;3.97;;;;;;;;;;5036558;28;20407;-69
2023/07/12 10:38:00;;;;;;;3.60;3.30;;;;;;;;;;5036953;28;20487;-69
2023/07/12 10:40:29;;;;;;;8.30;3.67;;;;;;;;;;5036503;28;20403;-69
2023/07/12 10:42:57;;;;;;;4.30;4.00;;;;;;;;;;5036511;28;20419;-69
2023/07/12 10:45:29;;;;;;;4.23;3.77;;;;;;;;;;5036531;28;20470;-69
2023/07/12 10:47:55;;;;;;;8.50;4.40;;;;;;;;;;5036627;28;20422;-69
2023/07/12 10:50:27;;;;;;;7.10;3.53;;;;;;;;;;5036144;28;20471;-69
2023/07/12 10:52:55;;;;;;;3.17;2.97;;;;;;;;;;5036468;28;20415;-69
2023/07/12 10:55:40;;;;;;;9.83;4.17;;;;;;;;;;5051442;28;20493;-69
2023/07/12 10:58:23;;;;;;;3.90;2.77;;;;;;;;;;5036147;28;20418;-69
2023/07/12 11:00:55;;;;;;;2.20;2.10;;;;;;;;;;5036244;28;20479;-69
2023/07/12 11:03:32;;;;;;;2.30;2.20;;;;;;;;;;5036443;28;20403;-69
2023/07/12 11:06:00;;;;;;;1.93;1.93;;;;;;;;;;5036353;28;20474;-69
2023/07/12 11:08:32;;;;;;;2.70;2.50;;;;;;;;;;5036207;28;20423;-69
2023/07/12 11:11:02;;;;;;;5.87;2.60;;;;;;;;;;5036199;28;20427;-69
2023/07/12 11:13:34;;;;;;;7.50;4.60;;;;;;;;;;5036019;28;20503;-69
2023/07/12 11:16:02;;;;;;;8.47;3.10;;;;;;;;;;5036163;28;20794;-69
2023/07/12 11:18:33;;;;;;;2.50;2.40;;;;;;;;;;5036077;28;20415;-68
2023/07/12 11:21:07;;;;;;;3.03;2.50;;;;;;;;;;5035793;28;20424;-69
2023/07/12 11:23:36;;;;;;;2.10;2.10;;;;;;;;;;5035813;28;20923;-69
2023/07/12 11:26:19;;;;;;;5.70;2.50;;;;;;;;;;5036002;28;20479;-70
2023/07/12 11:28:45;;;;;;;5.30;2.37;;;;;;;;;;5036014;28;20407;-69
2023/07/12 11:31:13;;;;;;;4.53;2.03;;;;;;;;;;5035264;28;20435;-69
2023/07/12 11:33:41;;;;;;;1.93;1.83;;;;;;;;;;5035211;28;20922;-69
2023/07/12 11:36:09;;;;;;;2.03;1.80;;;;;;;;;;5035835;28;20457;-69
2023/07/12 11:38:36;;;;;;;2.33;2.23;;;;;;;;;;5035668;28;20426;-69
2023/07/12 11:41:07;;;;;;;16.13;2.70;;;;;;;;;;5035449;28;20426;-69
2023/07/12 11:43:34;;;;;;;3.00;2.40;;;;;;;;;;5035904;28;20454;-69
2023/07/12 11:46:01;;;;;;;4.00;2.70;;;;;;;;;;5035580;28;20511;-69
2023/07/12 11:48:32;;;;;;;4.50;2.40;;;;;;;;;;5051264;28;20428;-69
2023/07/12 11:51:00;;;;;;;2.63;2.43;;;;;;;;;;5035209;28;20478;-69
2023/07/12 11:53:26;;;;;;;2.57;2.50;;;;;;;;;;5035166;28;20427;-69
2023/07/12 11:55:52;;;;;;;3.60;2.93;;;;;;;;;;5035188;28;20415;-69
2023/07/12 11:58:20;;;;;;;3.60;3.27;;;;;;;;;;5035245;28;20780;-69
2023/07/12 12:00:46;;;;;;;5.63;2.10;;;;;;;;;;5035344;28;20416;-69
2023/07/12 12:03:16;;;;;;;2.60;2.50;;;;;;;;;;5035542;28;20415;-69
2023/07/12 12:05:44;;;;;;;2.80;1.90;;;;;;;;;;5034615;28;20553;-69
2023/07/12 12:08:18;;;;;;;2.67;2.50;;;;;;;;;;5035211;28;20423;-69
2023/07/12 12:10:45;;;;;;;3.30;3.00;;;;;;;;;;5034781;28;20424;-69
2023/07/12 12:13:23;;;;;;;2.70;2.60;;;;;;;;;;5035120;28;20434;-69
2023/07/12 12:15:57;;;;;;;3.47;3.27;;;;;;;;;;5034655;28;20915;-69
2023/07/12 12:18:23;;;;;;;2.90;2.70;;;;;;;;;;5035009;28;20407;-69
2023/07/12 12:20:53;;;;;;;4.20;2.83;;;;;;;;;;5034922;28;20438;-69
2023/07/12 12:23:22;;;;;;;2.60;2.50;;;;;;;;;;5034699;28;20894;-69
2023/07/12 12:25:49;;;;;;;5.43;2.90;;;;;;;;;;5034846;28;20470;-69
2023/07/12 12:28:21;;;;;;;3.33;3.07;;;;;;;;;;5034845;28;20902;-69
2023/07/12 12:30:56;;;;;;;4.03;2.70;;;;;;;;;;5049843;28;20834;-69
2023/07/12 12:33:24;;;;;;;7.03;3.27;;;;;;;;;;5035508;28;20407;-69
2023/07/12 12:35:54;;;;;;;3.17;2.87;;;;;;;;;;5034689;28;20458;-69
2023/07/12 12:38:39;;;;;;;2.63;2.40;;;;;;;;;;5034911;28;20506;-69
2023/07/12 12:41:23;;;;;;;3.57;3.07;;;;;;;;;;5034431;28;20890;-69
2023/07/12 12:43:55;;;;;;;2.30;2.30;;;;;;;;;;5033369;28;20862;-69
2023/07/12 12:46:21;;;;;;;2.43;2.43;;;;;;;;;;5034084;28;20471;-69
2023/07/12 12:48:49;;;;;;;2.87;2.50;;;;;;;;;;5034204;28;20423;-69
2023/07/12 12:51:15;;;;;;;2.77;2.67;;;;;;;;;;5034478;28;20411;-69
2023/07/12 12:53:41;;;;;;;2.97;2.87;;;;;;;;;;5034429;28;20415;-69
2023/07/12 12:56:11;;;;;;;2.70;2.50;;;;;;;;;;5034610;28;20929;-69
2023/07/12 12:58:37;;;;;;;4.57;3.37;;;;;;;;;;5034665;28;20424;-69
2023/07/12 13:01:03;;;;;;;3.30;3.10;;;;;;;;;;5034217;28;20878;-69
2023/07/12 13:03:29;;;;;;;6.37;2.87;;;;;;;;;;5034203;28;20419;-69
2023/07/12 13:05:55;;;;;;;6.07;2.83;;;;;;;;;;5033830;28;20513;-69
2023/07/12 13:08:22;;;;;;;3.40;3.13;;;;;;;;;;5034068;28;20443;-69
2023/07/12 13:10:49;;;;;;;3.90;3.70;;;;;;;;;;5034091;28;20420;-69
2023/07/12 13:13:19;;;;;;;3.20;3.10;;;;;;;;;;5033777;28;20770;-69
2023/07/12 13:15:45;;;;;;;2.60;2.27;;;;;;;;;;5033670;28;20427;-69
2023/07/12 13:18:11;;;;;;;6.57;3.10;;;;;;;;;;5033796;28;20408;-69
2023/07/12 13:20:37;;;;;;;6.13;2.90;;;;;;;;;;5033502;28;20415;-69
2023/07/12 13:23:03;;;;;;;7.10;2.60;;;;;;;;;;5033552;28;20907;-69
2023/07/12 13:25:30;;;;;;;2.57;2.47;;;;;;;;;;5033836;28;20466;-69
2023/07/12 13:27:57;;;;;;;3.50;2.63;;;;;;;;;;5033473;28;20919;-69
2023/07/12 13:30:25;;;;;;;2.60;2.43;;;;;;;;;;5033694;28;20425;-69
2023/07/12 13:32:51;;;;;;;5.67;3.77;;;;;;;;;;5033664;28;20442;-69
2023/07/12 13:35:18;;;;;;;2.53;2.43;;;;;;;;;;5033772;28;20471;-69
2023/07/12 13:37:45;;;;;;;4.93;3.00;;;;;;;;;;5033724;28;20506;-69
2023/07/12 13:40:15;;;;;;;4.97;2.73;;;;;;;;;;5033601;28;20419;-69
2023/07/12 13:42:44;;;;;;;3.90;2.60;;;;;;;;;;5033636;28;20411;-69
2023/07/12 13:45:11;;;;;;;3.63;3.00;;;;;;;;;;5033496;28;20467;-69
2023/07/12 13:47:37;;;;;;;4.57;2.90;;;;;;;;;;5033486;28;20428;-69
2023/07/12 13:50:06;;;;;;;10.80;3.00;;;;;;;;;;5048380;28;20466;-69
2023/07/12 13:52:32;;;;;;;3.63;3.07;;;;;;;;;;5033752;28;20420;-69
2023/07/12 13:54:59;;;;;;;9.63;3.30;;;;;;;;;;5032898;28;21033;-69
2023/07/12 13:57:28;;;;;;;2.93;2.83;;;;;;;;;;5033499;28;20434;-69
2023/07/12 13:59:54;;;;;;;4.83;2.57;;;;;;;;;;5033300;28;20438;-69
2023/07/12 14:02:25;;;;;;;4.23;3.10;;;;;;;;;;5033337;28;20423;-69
2023/07/12 14:04:54;;;;;;;4.47;3.70;;;;;;;;;;5033092;28;20514;-69
2023/07/12 14:07:21;;;;;;;3.23;2.50;;;;;;;;;;5048332;28;20836;-69
2023/07/12 14:12:51;;;;;;;3.63;2.70;;;;;;;;;;5033161;28;20390;-69
2023/07/12 14:15:17;;;;;;;6.23;3.10;;;;;;;;;;5033258;28;20403;-69
2023/07/12 14:17:43;;;;;;;3.70;3.40;;;;;;;;;;5032963;28;20499;-69
2023/07/12 14:20:09;;;;;;;4.70;3.67;;;;;;;;;;5033025;28;20462;-69
2023/07/12 14:22:36;;;;;;;4.83;3.63;;;;;;;;;;5033647;28;20419;-69
2023/07/12 14:25:02;;;;;;;3.30;3.10;;;;;;;;;;5033119;28;20549;-69
2023/07/12 14:27:29;;;;;;;13.03;3.07;;;;;;;;;;5033106;28;20434;-69
2023/07/12 14:29:56;;;;;;;3.63;2.87;;;;;;;;;;5033010;28;20419;-68
2023/07/12 14:32:33;;;;;;;4.40;4.10;;;;;;;;;;5032859;28;20411;-69
2023/07/12 14:35:03;;;;;;;4.43;3.07;;;;;;;;;;5032834;28;20806;-69
2023/07/12 14:37:29;;;;;;;4.73;3.40;;;;;;;;;;5033149;28;20407;-69
2023/07/12 14:39:55;;;;;;;6.10;3.57;;;;;;;;;;5033268;28;20466;-69
2023/07/12 14:42:27;;;;;;;3.23;2.83;;;;;;;;;;5033044;28;20785;-69
2023/07/12 14:44:53;;;;;;;8.63;3.87;;;;;;;;;;5032920;28;20550;-69
2023/07/12 14:47:21;;;;;;;3.93;3.23;;;;;;;;;;5032897;28;20441;-69
2023/07/12 14:49:47;;;;;;;2.53;2.43;;;;;;;;;;5032541;28;20474;-69
2023/07/12 14:52:17;;;;;;;5.60;2.50;;;;;;;;;;5032685;28;20419;-69